Time;durP1;ratioP1;P1;durP2;ratioP2;P2;SDS_P1;SDS_P2;PMS_P1;PMS_P2;Temp;Humidity;BMP_temperature;BMP_pressure;BME280_temperature;BME280_humidity;BME280_pressure;Samples;Min_cycle;Max_cycle;Signal;HPM_P1;HPM_P2
2022/01/09 00:00:39;;;;;;;0.82;0.60;;;4.40;99.90;;;;;;5095086;28;20107;-64
2022/01/09 00:03:06;;;;;;;0.40;0.40;;;4.40;99.90;;;;;;5076851;28;20528;-65
2022/01/09 00:05:31;;;;;;;0.70;0.63;;;4.40;99.90;;;;;;5094700;28;20020;-65
2022/01/09 00:07:57;;;;;;;0.85;0.50;;;4.30;99.90;;;;;;5093467;28;20107;-65
2022/01/09 00:10:23;;;;;;;1.13;0.52;;;4.30;99.90;;;;;;5076791;28;20024;-65
2022/01/09 00:12:49;;;;;;;0.30;0.30;;;4.30;99.90;;;;;;5094913;28;20350;-65
2022/01/09 00:15:15;;;;;;;0.52;0.40;;;4.20;99.90;;;;;;5093016;28;20070;-65
2022/01/09 00:17:41;;;;;;;0.52;0.40;;;4.20;99.90;;;;;;5076610;28;20418;-65
2022/01/09 00:20:08;;;;;;;0.55;0.55;;;4.20;99.90;;;;;;5092940;28;20530;-65
2022/01/09 00:22:41;;;;;;;0.50;0.50;;;4.20;99.90;;;;;;5093721;28;20024;-65
2022/01/09 00:25:07;;;;;;;0.60;0.60;;;4.10;99.90;;;;;;5094412;28;20471;-65
2022/01/09 00:27:32;;;;;;;2.58;0.50;;;4.10;99.90;;;;;;5094647;28;20506;-65
2022/01/09 00:29:58;;;;;;;2.55;0.70;;;4.10;99.90;;;;;;5094380;28;20032;-65
2022/01/09 00:32:24;;;;;;;0.40;0.40;;;4.10;99.90;;;;;;5094658;28;20039;-65
2022/01/09 00:34:49;;;;;;;0.40;0.40;;;4.10;99.90;;;;;;5092773;28;20483;-65
2022/01/09 00:37:15;;;;;;;1.30;1.00;;;4.20;99.90;;;;;;5094171;28;20028;-65
2022/01/09 00:39:40;;;;;;;1.08;0.80;;;4.10;99.90;;;;;;5075775;28;20492;-65
2022/01/09 00:42:06;;;;;;;0.50;0.40;;;4.10;99.90;;;;;;5094373;28;20035;-65
2022/01/09 00:44:31;;;;;;;0.40;0.40;;;4.10;99.90;;;;;;5092517;28;20016;-73
2022/01/09 00:47:00;;;;;;;0.52;0.40;;;4.10;99.90;;;;;;5092525;28;20034;-73
2022/01/09 00:49:26;;;;;;;0.50;0.50;;;4.00;99.90;;;;;;5092620;28;20020;-73
2022/01/09 00:51:52;;;;;;;1.65;0.50;;;4.00;99.90;;;;;;5092836;28;20346;-72
2022/01/09 00:54:17;;;;;;;0.40;0.40;;;4.00;99.90;;;;;;5094077;28;20511;-72
2022/01/09 00:56:43;;;;;;;0.40;0.40;;;4.00;99.90;;;;;;5093663;28;20044;-72
2022/01/09 00:59:08;;;;;;;0.28;0.28;;;4.00;99.90;;;;;;5075905;28;20021;-73
2022/01/09 01:01:34;;;;;;;0.45;0.40;;;3.90;99.90;;;;;;5092718;28;20059;-72
2022/01/09 01:03:59;;;;;;;1.63;0.40;;;4.00;99.90;;;;;;5076489;28;20020;-72
2022/01/09 01:06:25;;;;;;;0.30;0.30;;;3.90;99.90;;;;;;5093068;28;20074;-72
2022/01/09 01:08:50;;;;;;;0.47;0.40;;;3.90;99.90;;;;;;5092370;28;20028;-73
2022/01/09 01:11:16;;;;;;;0.45;0.43;;;3.90;99.90;;;;;;5075495;28;20039;-72
2022/01/09 01:13:41;;;;;;;0.30;0.30;;;3.90;99.90;;;;;;5075510;28;20028;-72
2022/01/09 01:16:07;;;;;;;0.40;0.40;;;3.90;99.90;;;;;;5092631;28;20428;-72
2022/01/09 01:18:32;;;;;;;0.82;0.60;;;3.90;99.90;;;;;;5075607;28;20603;-73
2022/01/09 01:20:58;;;;;;;0.55;0.43;;;3.90;99.90;;;;;;5092316;28;20056;-73
2022/01/09 01:23:23;;;;;;;0.70;0.50;;;3.90;99.90;;;;;;5092497;28;20035;-73
2022/01/09 01:25:51;;;;;;;0.30;0.30;;;3.90;99.90;;;;;;5092946;28;20377;-66
2022/01/09 01:28:18;;;;;;;0.40;0.40;;;3.90;99.90;;;;;;5093644;28;20496;-66
2022/01/09 01:30:43;;;;;;;0.32;0.32;;;3.90;99.90;;;;;;5092083;28;20035;-66
2022/01/09 01:33:09;;;;;;;0.80;0.50;;;4.00;99.90;;;;;;5092119;28;20032;-66
2022/01/09 01:35:35;;;;;;;0.52;0.47;;;4.00;99.90;;;;;;5092590;28;20381;-66
2022/01/09 01:38:00;;;;;;;0.50;0.50;;;4.00;99.90;;;;;;5075234;28;20114;-66
2022/01/09 01:40:26;;;;;;;0.90;0.60;;;4.00;99.90;;;;;;5075168;28;20385;-66
2022/01/09 01:42:51;;;;;;;0.43;0.38;;;4.00;99.90;;;;;;5093540;28;20024;-66
2022/01/09 01:45:17;;;;;;;0.40;0.40;;;4.00;99.90;;;;;;5091914;28;20429;-66
2022/01/09 01:47:43;;;;;;;0.38;0.38;;;4.00;99.90;;;;;;5093761;28;20028;-66
2022/01/09 01:50:12;;;;;;;0.75;0.50;;;4.00;99.90;;;;;;5092263;28;20035;-66
2022/01/09 01:52:42;;;;;;;0.73;0.50;;;4.00;99.90;;;;;;5093704;28;20024;-66
2022/01/09 01:55:09;;;;;;;0.90;0.60;;;4.00;99.90;;;;;;5092545;28;20095;-66
2022/01/09 01:57:38;;;;;;;1.00;0.40;;;4.00;99.90;;;;;;5091773;28;20098;-66
2022/01/09 02:00:06;;;;;;;0.88;0.70;;;4.10;99.90;;;;;;5093065;28;20024;-66
2022/01/09 02:02:32;;;;;;;1.92;0.80;;;4.10;99.90;;;;;;5092164;28;20372;-66
2022/01/09 02:04:58;;;;;;;0.90;0.80;;;4.20;99.90;;;;;;5093107;28;20016;-66
2022/01/09 02:07:25;;;;;;;1.85;0.60;;;4.20;99.90;;;;;;5095466;28;20023;-66
2022/01/09 02:09:50;;;;;;;0.40;0.40;;;4.20;99.90;;;;;;5096099;28;20020;-66
2022/01/09 02:12:16;;;;;;;0.70;0.50;;;4.30;99.90;;;;;;5079078;28;20514;-66
2022/01/09 02:14:45;;;;;;;0.57;0.50;;;4.30;99.90;;;;;;5078426;28;20030;-66
2022/01/09 02:17:14;;;;;;;1.02;0.50;;;4.30;99.90;;;;;;5095335;28;20085;-65
2022/01/09 02:19:49;;;;;;;0.75;0.45;;;4.30;99.90;;;;;;5095915;28;20027;-66
2022/01/09 02:22:15;;;;;;;0.50;0.50;;;4.30;99.90;;;;;;5095691;28;20107;-66
2022/01/09 02:24:41;;;;;;;0.57;0.57;;;4.40;99.90;;;;;;5095782;28;20024;-65
2022/01/09 02:27:07;;;;;;;0.50;0.50;;;4.40;99.90;;;;;;5095412;28;20472;-66
2022/01/09 02:29:32;;;;;;;0.40;0.40;;;4.40;99.90;;;;;;5078297;28;20027;-66
2022/01/09 02:31:58;;;;;;;0.43;0.40;;;4.30;99.90;;;;;;5096089;28;20043;-66
2022/01/09 02:34:23;;;;;;;0.40;0.40;;;4.30;99.90;;;;;;5095564;28;20072;-65
2022/01/09 02:36:49;;;;;;;0.40;0.40;;;4.30;99.90;;;;;;5077930;28;20492;-66
2022/01/09 02:39:14;;;;;;;0.95;0.35;;;4.30;99.90;;;;;;5096641;28;20028;-66
2022/01/09 02:41:40;;;;;;;0.30;0.22;;;4.30;99.90;;;;;;5077885;28;20023;-66
2022/01/09 02:44:08;;;;;;;0.40;0.40;;;4.30;99.90;;;;;;5077896;28;20103;-66
2022/01/09 02:47:00;;;;;;;0.40;0.40;;;4.30;99.90;;;;;;5096761;28;20353;-66
2022/01/09 02:49:19;;;;;;;0.43;0.30;;;4.40;99.90;;;;;;5094834;28;20020;-66
2022/01/09 02:51:46;;;;;;;0.47;0.40;;;4.40;99.90;;;;;;5077759;28;20380;-66
2022/01/09 02:56:57;;;;;;;0.30;0.30;;;4.40;99.90;;;;;;5095355;28;20044;-66
2022/01/09 02:59:23;;;;;;;0.40;0.38;;;4.40;99.90;;;;;;5094805;28;20107;-66
2022/01/09 03:01:49;;;;;;;0.25;0.25;;;4.40;99.90;;;;;;5094513;28;20024;-66
2022/01/09 03:04:14;;;;;;;0.40;0.40;;;4.40;99.90;;;;;;5094452;28;20028;-66
2022/01/09 03:06:40;;;;;;;0.85;0.45;;;4.30;99.90;;;;;;5077483;28;20031;-66
2022/01/09 03:09:07;;;;;;;0.47;0.40;;;4.30;99.90;;;;;;5094214;28;20028;-66
2022/01/09 03:11:33;;;;;;;2.25;0.70;;;4.30;99.90;;;;;;5094867;28;20023;-66
2022/01/09 03:13:59;;;;;;;0.77;0.77;;;4.20;99.90;;;;;;5094167;28;20031;-66
2022/01/09 03:16:24;;;;;;;1.38;0.70;;;4.20;99.90;;;;;;5077245;28;20028;-66
2022/01/09 03:18:50;;;;;;;1.02;0.82;;;4.30;99.90;;;;;;5077154;28;20032;-66
2022/01/09 03:21:15;;;;;;;0.98;0.80;;;4.20;99.90;;;;;;5095518;28;20377;-66
2022/01/09 03:23:41;;;;;;;1.05;0.90;;;4.20;99.90;;;;;;5093967;28;20024;-66
2022/01/09 03:26:09;;;;;;;1.17;0.77;;;4.10;99.90;;;;;;5094264;28;20434;-66
2022/01/09 03:28:35;;;;;;;2.45;1.05;;;4.10;99.90;;;;;;5095102;28;20016;-66
2022/01/09 03:31:01;;;;;;;1.17;0.95;;;4.10;99.90;;;;;;5095645;28;20052;-66
2022/01/09 03:33:27;;;;;;;0.93;0.90;;;4.10;99.90;;;;;;5094381;28;20024;-66
2022/01/09 03:35:52;;;;;;;2.40;1.10;;;4.00;99.90;;;;;;5095536;28;20030;-66
2022/01/09 03:38:18;;;;;;;2.03;1.30;;;4.00;99.90;;;;;;5093574;28;20016;-66
2022/01/09 03:40:43;;;;;;;3.17;1.58;;;4.00;99.90;;;;;;5093987;28;20032;-66
2022/01/09 03:43:09;;;;;;;1.27;1.17;;;3.90;99.90;;;;;;5093629;28;20531;-66
2022/01/09 03:45:34;;;;;;;1.52;1.17;;;3.90;99.90;;;;;;5095374;28;20039;-66
2022/01/09 03:48:00;;;;;;;1.67;1.20;;;3.90;99.90;;;;;;5093566;28;20030;-66
2022/01/09 03:50:26;;;;;;;1.75;1.48;;;3.90;99.90;;;;;;5094282;28;20051;-66
2022/01/09 03:52:52;;;;;;;3.25;1.52;;;3.90;99.90;;;;;;5095210;28;20373;-66
2022/01/09 03:55:20;;;;;;;1.50;1.40;;;3.90;99.90;;;;;;5093340;28;20028;-66
2022/01/09 03:57:47;;;;;;;2.28;1.90;;;3.90;99.90;;;;;;5094338;28;20058;-66
2022/01/09 04:00:16;;;;;;;3.17;1.90;;;3.90;99.90;;;;;;5095110;28;20016;-66
2022/01/09 04:02:43;;;;;;;3.83;2.70;;;3.90;99.90;;;;;;5094510;28;20020;-66
2022/01/09 04:05:09;;;;;;;5.03;3.30;;;3.90;99.90;;;;;;5093869;28;20020;-66
2022/01/09 04:07:35;;;;;;;5.15;3.70;;;3.90;99.90;;;;;;5094952;28;20445;-66
2022/01/09 04:10:01;;;;;;;4.65;3.35;;;3.90;99.90;;;;;;5094945;28;20103;-67
2022/01/09 04:12:34;;;;;;;5.65;3.47;;;3.90;99.90;;;;;;5076282;28;20066;-66
2022/01/09 04:15:00;;;;;;;;;;;4.00;99.90;;;;;;5093445;28;20365;-66
2022/01/09 04:17:37;;;;;;;8.52;4.57;;;3.90;99.90;;;;;;5094420;28;19914;-66
2022/01/09 04:20:05;;;;;;;6.28;4.88;;;4.00;99.90;;;;;;5093742;28;20106;-66
2022/01/09 04:22:31;;;;;;;9.30;6.85;;;4.00;99.90;;;;;;5092909;28;20430;-66
2022/01/09 04:24:57;;;;;;;10.13;7.80;;;4.10;99.90;;;;;;5076527;28;20020;-66
2022/01/09 04:27:22;;;;;;;10.98;8.18;;;4.10;99.90;;;;;;5075586;28;20045;-66
2022/01/09 04:29:48;;;;;;;13.55;9.65;;;4.20;99.90;;;;;;5075950;28;20078;-66
2022/01/09 04:32:13;;;;;;;14.63;10.10;;;4.20;99.90;;;;;;5092723;28;20444;-66
2022/01/09 04:34:39;;;;;;;13.50;9.90;;;4.20;99.90;;;;;;5092777;28;20049;-66
2022/01/09 04:37:04;;;;;;;15.65;11.13;;;4.30;99.90;;;;;;5092936;28;20024;-65
2022/01/09 04:39:30;;;;;;;15.65;10.73;;;4.30;99.90;;;;;;5092626;28;20020;-66
2022/01/09 04:41:56;;;;;;;16.90;10.65;;;4.40;99.90;;;;;;5075839;28;20016;-66
2022/01/09 04:44:23;;;;;;;14.50;9.88;;;4.40;99.90;;;;;;5075783;28;20027;-66
2022/01/09 04:46:56;;;;;;;14.13;10.00;;;4.40;99.90;;;;;;5092928;28;20024;-66
2022/01/09 04:49:25;;;;;;;;;;;4.40;99.90;;;;;;5077127;28;20020;-65
2022/01/09 04:51:51;;;;;;;14.45;9.43;;;4.40;99.90;;;;;;5093751;28;19910;-66
2022/01/09 04:54:16;;;;;;;12.52;8.13;;;4.40;99.90;;;;;;5093963;28;20094;-65
2022/01/09 04:56:42;;;;;;;14.00;8.23;;;4.50;99.90;;;;;;5092208;28;20400;-66
2022/01/09 04:59:07;;;;;;;11.98;7.00;;;4.50;99.90;;;;;;5092653;28;20039;-66
2022/01/09 05:01:33;;;;;;;10.18;6.25;;;4.50;99.90;;;;;;5075550;28;20020;-66
2022/01/09 05:03:58;;;;;;;11.05;5.65;;;4.50;99.90;;;;;;5094152;28;20024;-66
2022/01/09 05:06:24;;;;;;;7.60;4.20;;;4.50;99.90;;;;;;5075525;28;20427;-66
2022/01/09 05:08:49;;;;;;;9.80;5.10;;;4.60;99.90;;;;;;5075456;28;20027;-65
2022/01/09 05:11:15;;;;;;;11.40;4.85;;;4.60;99.90;;;;;;5075448;28;20024;-66
2022/01/09 05:13:40;;;;;;;9.55;4.40;;;4.60;99.90;;;;;;5075450;28;20036;-66
2022/01/09 05:16:06;;;;;;;6.68;3.72;;;4.70;99.90;;;;;;5092226;28;20020;-66
2022/01/09 05:18:39;;;;;;;6.28;3.70;;;4.60;99.90;;;;;;5092515;28;20104;-66
2022/01/09 05:21:05;;;;;;;9.30;4.13;;;4.60;99.90;;;;;;5076495;28;20496;-66
2022/01/09 05:23:30;;;;;;;6.88;4.10;;;4.60;99.90;;;;;;5093674;28;20063;-65
2022/01/09 05:25:56;;;;;;;8.43;3.55;;;4.60;99.90;;;;;;5092771;28;20028;-66
2022/01/09 05:28:21;;;;;;;5.32;3.25;;;4.60;99.90;;;;;;5092528;28;20095;-66
2022/01/09 05:30:47;;;;;;;6.75;3.03;;;4.60;99.90;;;;;;5075281;28;20028;-65
2022/01/09 05:33:12;;;;;;;5.80;3.30;;;4.60;99.90;;;;;;5075813;28;20121;-65
2022/01/09 05:35:38;;;;;;;6.75;3.30;;;4.60;99.90;;;;;;5092054;28;20024;-65
2022/01/09 05:38:03;;;;;;;7.93;3.00;;;4.70;99.90;;;;;;5092328;28;20032;-65
2022/01/09 05:40:29;;;;;;;10.43;3.42;;;4.70;99.90;;;;;;5095039;28;20055;-66
2022/01/09 05:42:55;;;;;;;9.50;3.63;;;4.70;99.90;;;;;;5079616;28;20074;-65
2022/01/09 05:45:20;;;;;;;10.93;3.90;;;4.80;99.90;;;;;;5079039;28;20110;-65
2022/01/09 05:47:46;;;;;;;21.83;4.07;;;4.80;99.90;;;;;;5079005;28;20020;-64
2022/01/09 05:50:13;;;;;;;26.67;4.15;;;4.80;99.90;;;;;;5078904;28;20028;-66
2022/01/09 05:52:38;;;;;;;26.33;4.45;;;4.80;99.90;;;;;;5078856;28;20028;-66
2022/01/09 05:55:04;;;;;;;14.05;3.72;;;4.90;99.90;;;;;;5078810;28;20032;-66
2022/01/09 05:57:30;;;;;;;25.15;4.65;;;4.90;99.90;;;;;;5095594;28;20072;-66
2022/01/09 05:59:55;;;;;;;26.80;5.00;;;5.00;99.90;;;;;;5095996;28;20424;-66
2022/01/09 06:02:21;;;;;;;24.52;5.03;;;5.00;99.90;;;;;;5095576;28;20464;-66
2022/01/09 06:04:46;;;;;;;29.40;5.60;;;5.00;99.90;;;;;;5078650;28;20023;-66
2022/01/09 06:07:12;;;;;;;26.05;5.53;;;5.10;99.90;;;;;;5095854;28;20472;-66
2022/01/09 06:09:37;;;;;;;25.60;5.68;;;5.10;99.90;;;;;;5097248;28;20051;-66
2022/01/09 06:12:03;;;;;;;34.08;5.93;;;5.20;99.90;;;;;;5096258;28;20493;-66
2022/01/09 06:14:29;;;;;;;37.05;7.80;;;5.30;99.90;;;;;;5095687;28;20084;-66
2022/01/09 06:16:54;;;;;;;35.63;5.80;;;5.30;99.90;;;;;;5095236;28;20119;-66
2022/01/09 06:19:20;;;;;;;33.60;7.15;;;5.30;99.90;;;;;;5095630;28;20020;-66
2022/01/09 06:21:45;;;;;;;33.13;5.53;;;5.30;99.90;;;;;;5095557;28;20381;-66
2022/01/09 06:24:10;;;;;;;46.72;8.27;;;5.40;99.90;;;;;;5078849;28;20024;-66
2022/01/09 06:26:36;;;;;;;30.05;6.63;;;5.40;99.90;;;;;;5095458;28;20028;-66
2022/01/09 06:29:02;;;;;;;43.63;6.57;;;5.40;99.90;;;;;;5096869;28;20532;-66
2022/01/09 06:31:27;;;;;;;30.73;5.30;;;5.40;99.90;;;;;;5096818;28;20077;-66
2022/01/09 06:33:53;;;;;;;39.45;6.78;;;5.40;99.90;;;;;;5078117;28;20115;-66
2022/01/09 06:36:18;;;;;;;34.13;5.85;;;5.50;99.90;;;;;;5096166;28;20108;-66
2022/01/09 06:38:44;;;;;;;37.45;6.20;;;5.50;99.90;;;;;;5094787;28;20082;-66
2022/01/09 06:41:09;;;;;;;32.38;5.95;;;5.50;99.90;;;;;;5096641;28;20074;-66
2022/01/09 06:43:35;;;;;;;33.92;5.50;;;5.40;99.90;;;;;;5094888;28;20020;-66
2022/01/09 06:46:00;;;;;;;33.10;5.03;;;5.50;99.90;;;;;;5095400;28;20024;-66
2022/01/09 06:48:26;;;;;;;26.02;4.32;;;5.50;99.90;;;;;;5078676;28;20073;-66
2022/01/09 06:51:00;;;;;;;23.80;4.35;;;5.50;99.90;;;;;;5095851;28;20028;-66
2022/01/09 06:53:25;;;;;;;28.55;5.03;;;5.50;99.90;;;;;;5095848;28;20092;-66
2022/01/09 06:55:51;;;;;;;27.00;4.22;;;5.50;99.90;;;;;;5094981;28;20034;-67
2022/01/09 06:58:21;;;;;;;23.48;3.90;;;5.50;99.90;;;;;;5077486;28;20075;-67
2022/01/09 07:00:47;;;;;;;19.60;3.92;;;5.40;99.90;;;;;;5095990;28;20020;-66
2022/01/09 07:03:12;;;;;;;20.92;3.80;;;5.40;99.90;;;;;;5094449;28;20020;-67
2022/01/09 07:05:38;;;;;;;27.40;4.13;;;5.40;99.90;;;;;;5095869;28;20024;-66
2022/01/09 07:08:03;;;;;;;23.67;4.10;;;5.40;99.90;;;;;;5096148;28;20067;-66
2022/01/09 07:10:29;;;;;;;21.45;3.47;;;5.40;99.90;;;;;;5094258;28;20031;-66
2022/01/09 07:12:55;;;;;;;18.35;4.25;;;5.40;99.90;;;;;;5095741;28;20024;-66
2022/01/09 07:15:20;;;;;;;22.45;3.88;;;5.40;99.90;;;;;;5095716;28;20032;-66
2022/01/09 07:17:46;;;;;;;13.80;3.65;;;5.30;99.90;;;;;;5094415;28;20468;-66
2022/01/09 07:20:11;;;;;;;29.80;5.50;;;5.30;99.90;;;;;;5095588;28;20385;-66
2022/01/09 07:22:37;;;;;;;24.75;3.97;;;5.30;99.90;;;;;;5095835;28;20077;-66
2022/01/09 07:25:05;;;;;;;20.58;4.28;;;5.30;99.90;;;;;;5093959;28;20070;-66
2022/01/09 07:27:32;;;;;;;21.17;4.28;;;5.30;99.90;;;;;;5094619;28;20077;-66
2022/01/09 07:29:57;;;;;;;19.10;4.47;;;5.30;99.90;;;;;;5095661;28;20035;-66
2022/01/09 07:32:23;;;;;;;26.05;5.07;;;5.30;99.90;;;;;;5093794;28;20032;-66
2022/01/09 07:34:48;;;;;;;22.23;4.80;;;5.30;99.90;;;;;;5076932;28;20028;-66
2022/01/09 07:37:14;;;;;;;23.85;6.03;;;5.20;99.90;;;;;;5093998;28;20085;-66
2022/01/09 07:39:39;;;;;;;22.80;5.15;;;5.20;99.90;;;;;;5094984;28;20028;-66
2022/01/09 07:42:05;;;;;;;21.27;5.05;;;5.20;99.90;;;;;;5095158;28;20028;-66
2022/01/09 07:44:30;;;;;;;23.45;4.65;;;5.20;99.90;;;;;;5093966;28;20486;-66
2022/01/09 07:46:56;;;;;;;18.50;4.80;;;5.20;99.90;;;;;;5093578;28;20024;-66
2022/01/09 07:49:23;;;;;;;26.83;5.93;;;5.20;99.90;;;;;;5093874;28;20150;-66
2022/01/09 07:51:49;;;;;;;32.42;6.97;;;5.10;99.90;;;;;;5095304;28;20023;-66
2022/01/09 07:54:15;;;;;;;29.02;7.68;;;5.10;99.90;;;;;;5093418;28;20021;-66
2022/01/09 07:56:40;;;;;;;32.67;7.20;;;5.20;99.90;;;;;;5093754;28;20047;-66
2022/01/09 07:59:06;;;;;;;30.45;7.22;;;5.20;99.90;;;;;;5093263;28;20393;-66
2022/01/09 08:01:31;;;;;;;33.92;7.47;;;5.20;99.90;;;;;;5093901;28;20059;-66
2022/01/09 08:03:57;;;;;;;27.55;6.22;;;5.20;99.90;;;;;;5094387;28;20032;-66
2022/01/09 08:06:22;;;;;;;29.67;6.60;;;5.20;99.90;;;;;;5093842;28;20016;-66
2022/01/09 08:08:48;;;;;;;30.27;8.60;;;5.10;99.90;;;;;;5094676;28;20032;-66
2022/01/09 08:11:15;;;;;;;39.00;8.18;;;5.10;99.90;;;;;;5093096;28;20028;-66
2022/01/09 08:13:41;;;;;;;30.98;7.07;;;5.10;99.90;;;;;;5093754;28;20023;-66
2022/01/09 08:16:06;;;;;;;29.88;7.32;;;5.10;99.90;;;;;;5076595;28;20024;-66
2022/01/09 08:18:32;;;;;;;34.70;8.23;;;5.10;99.90;;;;;;5093647;28;20457;-66
2022/01/09 08:20:57;;;;;;;42.95;9.25;;;5.00;99.90;;;;;;5094491;28;20023;-66
2022/01/09 08:23:23;;;;;;;28.25;7.63;;;5.00;99.90;;;;;;5093291;28;20123;-66
2022/01/09 08:25:48;;;;;;;29.92;8.10;;;5.00;99.90;;;;;;5094648;28;20036;-66
2022/01/09 08:28:14;;;;;;;35.78;6.80;;;5.00;99.90;;;;;;5093462;28;20035;-66
2022/01/09 08:30:39;;;;;;;28.33;7.35;;;5.00;99.90;;;;;;5075912;28;20024;-66
2022/01/09 08:33:05;;;;;;;24.77;6.60;;;5.00;99.90;;;;;;5094313;28;20032;-66
2022/01/09 08:35:30;;;;;;;28.95;6.75;;;5.10;99.90;;;;;;5094521;28;20469;-66
2022/01/09 08:37:56;;;;;;;31.88;7.15;;;5.10;99.90;;;;;;5075734;28;20492;-66
2022/01/09 08:40:22;;;;;;;37.53;6.70;;;5.10;99.90;;;;;;5092661;28;20020;-66
2022/01/09 08:42:50;;;;;;;18.45;5.05;;;5.20;99.90;;;;;;5092955;28;20020;-66
2022/01/09 08:45:17;;;;;;;27.50;5.07;;;5.20;99.90;;;;;;5094442;28;20028;-66
2022/01/09 08:47:43;;;;;;;22.02;5.70;;;5.20;99.90;;;;;;5078553;28;20158;-66
2022/01/09 08:50:10;;;;;;;26.30;4.95;;;5.20;99.90;;;;;;5094347;28;20031;-66
2022/01/09 08:52:36;;;;;;;29.55;6.05;;;5.10;99.90;;;;;;5076120;28;20024;-66
2022/01/09 08:55:03;;;;;;;24.08;4.93;;;5.10;99.90;;;;;;5093967;28;20039;-66
2022/01/09 08:57:29;;;;;;;25.25;5.95;;;5.20;99.90;;;;;;5092391;28;20048;-66
2022/01/09 08:59:54;;;;;;;20.10;4.93;;;5.20;99.90;;;;;;5092434;28;20507;-66
2022/01/09 09:02:20;;;;;;;33.35;6.22;;;5.20;99.90;;;;;;5092428;28;20100;-66
2022/01/09 09:04:46;;;;;;;21.55;5.47;;;5.10;99.90;;;;;;5093928;28;20052;-67
2022/01/09 09:07:12;;;;;;;24.80;4.57;;;5.10;99.90;;;;;;5094396;28;20027;-67
2022/01/09 09:09:38;;;;;;;25.85;4.60;;;5.20;99.90;;;;;;5093540;28;20465;-67
2022/01/09 09:12:04;;;;;;;24.17;5.05;;;5.10;99.90;;;;;;5075502;28;20082;-66
2022/01/09 09:14:30;;;;;;;18.63;4.25;;;5.10;99.90;;;;;;5094965;28;20103;-66
2022/01/09 09:16:56;;;;;;;15.80;4.40;;;5.10;99.90;;;;;;5080203;28;20027;-66
2022/01/09 09:19:22;;;;;;;22.58;5.13;;;5.10;99.90;;;;;;5097570;28;20377;-66
2022/01/09 09:21:47;;;;;;;20.40;4.80;;;5.20;99.90;;;;;;5096353;28;20166;-66
2022/01/09 09:24:13;;;;;;;17.67;4.40;;;5.20;99.90;;;;;;5097857;28;20042;-66
2022/01/09 09:26:39;;;;;;;20.95;5.22;;;5.20;99.90;;;;;;5079464;28;20495;-66
2022/01/09 09:29:07;;;;;;;27.88;5.97;;;5.30;99.90;;;;;;5079298;28;20032;-66
2022/01/09 09:31:32;;;;;;;22.13;5.22;;;5.30;99.90;;;;;;5096165;28;20485;-66
2022/01/09 09:33:58;;;;;;;22.63;5.57;;;5.30;99.90;;;;;;5097914;28;20072;-66
2022/01/09 09:36:24;;;;;;;21.02;5.05;;;5.30;99.90;;;;;;5079253;28;20040;-66
2022/01/09 09:38:50;;;;;;;15.32;4.82;;;5.30;99.90;;;;;;5096343;28;20020;-66
2022/01/09 09:41:16;;;;;;;24.13;5.25;;;5.30;99.90;;;;;;5096361;28;20465;-66
2022/01/09 09:43:42;;;;;;;18.92;4.80;;;5.40;99.90;;;;;;5079045;28;20131;-66
2022/01/09 09:46:07;;;;;;;24.67;5.57;;;5.40;99.90;;;;;;5097437;28;20034;-66
2022/01/09 09:48:33;;;;;;;25.70;5.00;;;5.40;99.90;;;;;;5096225;28;20032;-66
2022/01/09 09:50:58;;;;;;;27.00;6.32;;;5.40;99.90;;;;;;5097587;28;20028;-66
2022/01/09 09:53:24;;;;;;;20.88;5.68;;;5.50;99.90;;;;;;5078817;28;20081;-66
2022/01/09 09:55:53;;;;;;;15.52;4.78;;;5.50;99.90;;;;;;5078775;28;20020;-66
2022/01/09 09:58:19;;;;;;;16.20;4.80;;;5.50;99.90;;;;;;5079009;28;20092;-66
2022/01/09 10:00:54;;;;;;;26.77;5.50;;;5.60;99.90;;;;;;5096029;28;20021;-66
2022/01/09 10:03:27;;;;;;;22.38;6.65;;;5.60;99.90;;;;;;5095988;28;20032;-66
2022/01/09 10:05:53;;;;;;;16.88;5.38;;;5.60;99.90;;;;;;5095891;28;20016;-66
2022/01/09 10:08:19;;;;;;;17.13;5.30;;;5.50;99.90;;;;;;5096153;28;20070;-66
2022/01/09 10:10:45;;;;;;;17.05;5.60;;;5.60;99.90;;;;;;5095442;28;20070;-66
2022/01/09 10:13:14;;;;;;;19.27;5.32;;;5.60;99.90;;;;;;5097128;28;20133;-66
2022/01/09 10:15:48;;;;;;;26.45;6.57;;;5.60;99.90;;;;;;5095581;28;20146;-66
2022/01/09 10:18:34;;;;;;;19.75;5.45;;;5.60;99.90;;;;;;5078177;28;20024;-65
2022/01/09 10:21:07;;;;;;;22.83;6.10;;;5.60;99.90;;;;;;5095322;28;20465;-65
2022/01/09 10:23:32;;;;;;;19.60;6.25;;;5.60;99.90;;;;;;5078773;28;20114;-66
2022/01/09 10:26:10;;;;;;;18.92;5.97;;;5.60;99.90;;;;;;5077339;28;20484;-64
2022/01/09 10:28:39;;;;;;;20.55;6.43;;;5.60;99.90;;;;;;5095311;28;20107;-66
2022/01/09 10:31:15;;;;;;;20.42;5.75;;;5.60;99.90;;;;;;5096749;28;20028;-66
2022/01/09 10:33:54;;;;;;;21.33;5.68;;;5.60;99.90;;;;;;5095333;28;20449;-66
2022/01/09 10:36:45;;;;;;;18.17;6.72;;;5.60;99.90;;;;;;5079960;28;20026;-66
2022/01/09 10:39:16;;;;;;;17.67;7.53;;;5.70;99.90;;;;;;5094739;28;20024;-66
2022/01/09 10:42:03;;;;;;;20.77;6.43;;;5.70;99.90;;;;;;5095188;28;20031;-65
2022/01/09 10:44:33;;;;;;;25.50;7.13;;;5.80;99.90;;;;;;5080225;28;20027;-66
2022/01/09 10:47:16;;;;;;;18.20;6.10;;;5.80;99.90;;;;;;5095423;28;20024;-66
2022/01/09 10:52:25;;;;;;;16.83;6.53;;;5.80;99.90;;;;;;5132499;27;20335;-65
2022/01/09 10:54:53;;;;;;;18.75;6.13;;;5.70;99.90;;;;;;5111610;28;20032;-65
2022/01/09 10:57:24;;;;;;;19.33;6.82;;;5.70;99.90;;;;;;5111862;28;20020;-65
2022/01/09 10:59:50;;;;;;;17.58;6.03;;;5.70;99.90;;;;;;5111563;28;20099;-65
2022/01/09 11:02:17;;;;;;;18.05;6.68;;;5.60;99.90;;;;;;5111542;28;20088;-65
2022/01/09 11:04:45;;;;;;;19.70;5.60;;;5.60;99.90;;;;;;5111747;28;20023;-65
2022/01/09 11:07:11;;;;;;;13.85;5.25;;;5.60;99.90;;;;;;5111435;28;20024;-65
2022/01/09 11:09:38;;;;;;;19.17;5.70;;;5.60;99.90;;;;;;5093233;28;20031;-65
2022/01/09 11:12:07;;;;;;;23.33;6.68;;;5.50;99.90;;;;;;5111228;28;20484;-65
2022/01/09 11:14:36;;;;;;;21.95;5.90;;;5.40;99.90;;;;;;5111584;28;20465;-66
2022/01/09 11:17:05;;;;;;;19.25;5.70;;;5.40;99.90;;;;;;5111504;28;20480;-65
2022/01/09 11:19:32;;;;;;;19.88;6.25;;;5.40;99.90;;;;;;5076615;28;20035;-66
2022/01/09 11:22:00;;;;;;;23.15;6.50;;;5.30;99.90;;;;;;5111170;28;20027;-66
2022/01/09 11:24:52;;;;;;;17.23;5.38;;;5.30;99.90;;;;;;5111089;28;20027;-66
2022/01/09 11:27:27;;;;;;;22.50;6.10;;;5.40;99.90;;;;;;5110720;28;20063;-65
2022/01/09 11:30:14;;;;;;;15.35;5.60;;;5.40;99.90;;;;;;5110989;28;20024;-66
2022/01/09 11:33:19;;;;;;;18.17;5.80;;;5.40;99.90;;;;;;5110940;28;20034;-66
2022/01/09 11:36:25;;;;;;;24.70;6.68;;;5.40;99.90;;;;;;5110440;28;20028;-66
2022/01/09 11:39:14;;;;;;;15.07;5.60;;;5.30;99.90;;;;;;5110360;28;20481;-66
2022/01/09 11:41:41;;;;;;;15.55;5.72;;;5.30;99.90;;;;;;5111096;28;20055;-66
2022/01/09 11:44:10;;;;;;;20.27;6.32;;;5.30;99.90;;;;;;5110722;28;20024;-66
2022/01/09 11:46:59;;;;;;;15.13;5.30;;;5.40;99.90;;;;;;5092528;28;20037;-64
2022/01/09 11:49:27;;;;;;;17.27;5.75;;;5.30;99.90;;;;;;5110364;28;20020;-66
2022/01/09 11:51:55;;;;;;;23.33;6.45;;;5.30;99.90;;;;;;5093309;28;20056;-65
2022/01/09 11:54:21;;;;;;;17.23;6.00;;;5.20;99.90;;;;;;5089950;28;20021;-66
2022/01/09 11:56:52;;;;;;;23.85;6.63;;;5.20;99.90;;;;;;5072455;28;20031;-66
2022/01/09 12:04:54;;;;;;;25.13;7.03;;;5.30;99.90;;;;;;5112140;27;20637;-66
2022/01/09 12:12:57;;;;;;;22.92;7.32;;;5.40;99.90;;;;;;5112236;27;20780;-65
2022/01/09 12:15:43;;;;;;;25.02;7.43;;;5.50;99.90;;;;;;5110825;28;20055;-66
2022/01/09 12:18:44;;;;;;;26.90;7.82;;;5.70;99.90;;;;;;5110714;28;20047;-65
2022/01/09 12:21:30;;;;;;;21.35;7.32;;;5.70;99.90;;;;;;5109989;28;20027;-66
2022/01/09 12:24:36;;;;;;;24.27;7.82;;;5.80;99.90;;;;;;5110125;28;20115;-66
2022/01/09 12:27:42;;;;;;;19.50;7.70;;;5.80;99.90;;;;;;5109861;28;20024;-66
2022/01/09 12:30:10;;;;;;;19.15;6.60;;;5.90;99.90;;;;;;5109771;28;20028;-66
2022/01/09 12:32:44;;;;;;;24.92;8.63;;;5.80;99.90;;;;;;5092780;28;20055;-66
2022/01/09 12:35:13;;;;;;;16.70;6.88;;;5.90;99.90;;;;;;5109728;28;20031;-65
2022/01/09 12:37:45;;;;;;;20.08;7.18;;;5.80;99.90;;;;;;5110591;28;20028;-66
2022/01/09 12:40:14;;;;;;;21.87;7.43;;;5.80;99.90;;;;;;5110148;28;20020;-70
2022/01/09 12:42:46;;;;;;;17.45;6.95;;;5.70;99.90;;;;;;5109970;28;20097;-71
2022/01/09 12:45:17;;;;;;;16.45;6.45;;;5.70;99.90;;;;;;5109922;28;20016;-71
2022/01/09 12:47:43;;;;;;;22.42;6.72;;;5.80;99.90;;;;;;5111007;28;20027;-71
2022/01/09 12:50:08;;;;;;;23.60;7.82;;;5.80;99.90;;;;;;5109421;28;20496;-71
2022/01/09 12:52:34;;;;;;;18.73;6.63;;;5.80;99.90;;;;;;5109935;28;20028;-71
2022/01/09 12:55:05;;;;;;;30.40;6.63;;;5.80;99.90;;;;;;5110026;28;20122;-71
2022/01/09 12:57:48;;;;;;;23.13;7.70;;;5.90;99.90;;;;;;5092345;28;20076;-71
2022/01/09 13:00:14;;;;;;;16.45;6.70;;;5.80;99.90;;;;;;5109660;28;20031;-71
2022/01/09 13:02:40;;;;;;;20.65;6.15;;;5.80;99.90;;;;;;5109136;28;20366;-70
2022/01/09 13:05:05;;;;;;;20.50;6.47;;;5.80;99.90;;;;;;5111213;28;20058;-71
2022/01/09 13:07:31;;;;;;;17.60;7.03;;;5.90;99.90;;;;;;5109506;28;20035;-71
2022/01/09 13:09:56;;;;;;;19.90;6.35;;;5.90;99.90;;;;;;5110949;28;20031;-70